METAR Data
IDs: Format: Raw Decoded Include TAF

Data at: 1609 UTC 21 Sep 2018

KAPF 211553Z 05006KT 10SM FEW032 32/23 A3005 RMK AO2 SLP175 T03170228
KAPF 211453Z 06008KT 030V100 10SM FEW025 31/24 A3005 RMK AO2 SLP176 T03060239 50005
KAPF 211353Z 04006KT 10SM CLR 29/24 A3007 RMK AO2 SLP181 T02940244
KAPF 211253Z 02005KT 10SM CLR 28/24 A3006 RMK AO2 SLP177 T02830244
KAPF 211153Z 04004KT 10SM CLR 26/24 A3004 RMK AO2 SLP171 T02610244 10261 20250 53014
KAPF 211053Z 01003KT 10SM CLR 26/24 A3002 RMK AO2 SLP163 T02560239
KAPF 210953Z 00000KT 10SM CLR 26/24 A3000 RMK AO2 SLP158 T02560239
KAPF 210853Z AUTO 07005KT 10SM BKN110 26/24 A3000 RMK AO2 SLP158 T02560239 56013
KAPF 210753Z AUTO 08004KT 10SM CLR 26/23 A3000 RMK AO2 SLP159 T02560233
KAPF 210653Z AUTO 08006KT 10SM CLR 26/23 A3001 RMK AO2 SLP161 T02560233
KAPF 210553Z AUTO 06006KT 10SM CLR 25/23 A3004 RMK AO2 SLP170 T02500233 10272 20250 58003
KAPF 210453Z AUTO 05005KT 10SM CLR 26/23 A3005 RMK AO2 SLP175 T02560228 403280256
KAPF 210353Z AUTO 08003KT 10SM CLR 26/23 A3006 RMK AO2 SLP176 T02560228
KAPF 210253Z AUTO 08003KT 10SM CLR 26/23 A3005 RMK AO2 SLP174 T02560228 51015
KAPF 210153Z 06004KT 10SM CLR 26/23 A3004 RMK AO2 SLP170 T02610228
KAPF 210053Z 10005KT 10SM CLR 26/23 A3002 RMK AO2 LTG DSNT SW SLP163 T02610228
KAPF 210023Z 09005KT 10SM CLR 27/23 A3001 RMK AO2 T02670228
KAPF 202353Z 00000KT 10SM VCTS FEW030 SCT060 27/23 A3000 RMK AO2 SLP158 60000 T02720228 10328 20267 50008
KAPF 202253Z 09006KT 10SM VCTS CLR 27/22 A3001 RMK AO2 LTG DSNT E RAE2157 SLP161 P0000 T02720222
KAPF 202153Z 12003KT 10SM VCTS -RA SCT033 SCT060 BKN095 28/23 A2998 RMK AO2 LTG DSNT NE AND E RAB29 SLP152 P0000 T02830228
KAPF 202053Z 27007KT 10SM VCTS SCT035CB 31/23 A2998 RMK AO2 LTG DSNT N-E SLP151 T03110233 56017
KAPF 202025Z 26010KT 10SM VCTS CLR 32/24 A2997 RMK AO2 LTG DSNT N-SE T03220239
KAPF 201953Z 27008KT 10SM SCT035CB 32/23 A2998 RMK AO2 LTG DSNT N-E SLP151 T03220233
KAPF 201853Z 25008KT 10SM FEW035CB 32/23 A2999 RMK AO2 LTG DSNT E AND SE SLP155 T03220233
KAPF 201753Z 24009KT 10SM FEW035 32/24 A3003 RMK AO2 SLP167 T03170239 10328 20272 58010
KAPF 201653Z VRB06KT 10SM FEW035 33/23 A3004 RMK AO2 SLP172 T03280228
KAPF 201553Z 27007KT 10SM SCT034 32/22 A3006 RMK AO2 LTG DSNT SE SLP177 T03220222
KAPF 201453Z 33005KT 10SM SCT034 32/23 A3006 RMK AO2 SLP177 T03170228 53019
KAPF 201353Z 31004KT 10SM CLR 31/24 A3003 RMK AO2 SLP168 T03060239
KAPF 201253Z 02003KT 10SM CLR 29/25 A3002 RMK AO2 SLP164 T02940250
KAPF 201153Z 05004KT 10SM CLR 27/24 A3000 RMK AO2 SLP158 70004 T02670244 10272 20261 51016
KAPF 201053Z 00000KT 10SM CLR 27/24 A2999 RMK AO2 SLP153 T02670239
KAPF 200953Z 00000KT 10SM CLR 26/24 A2997 RMK AO2 SLP147 T02610239
KAPF 200853Z AUTO 20003KT 10SM CLR 26/24 A2995 RMK AO2 SLP142 T02610239 58010
KAPF 200753Z AUTO 00000KT 10SM CLR 27/24 A2996 RMK AO2 LTG DSNT SW SLP144 T02670239
KAPF 200653Z AUTO 00000KT 10SM FEW055 27/25 A2998 RMK AO2 SLP150 T02670250
KAPF 200553Z AUTO 01003KT 10SM BKN080 27/24 A2998 RMK AO2 LTG DSNT S AND W SLP151 60004 T02720244 10300 20261 58005
KAPF 200453Z AUTO 00000KT 10SM SCT049 27/24 A2999 RMK AO2 SLP155 T02720244 403280250